Time;durP1;ratioP1;P1;durP2;ratioP2;P2;SDS_P1;SDS_P2;PMS_P1;PMS_P2;Temp;Humidity;BMP_temperature;BMP_pressure;BME280_temperature;BME280_humidity;BME280_pressure;Samples;Min_cycle;Max_cycle;Signal;HPM_P1;HPM_P2
2023/07/10 00:01:59;;;;;;;;;;;;;;;;;;5109429;28;2126;-58
2023/07/10 00:04:26;;;;;;;;;;;;;;;;;;5110231;27;2140;-59
2023/07/10 00:06:54;;;;;;;;;;;;;;;;;;5109355;28;1943;-58
2023/07/10 00:09:21;;;;;;;;;;;;;;;;;;5114040;27;2285;-58
2023/07/10 00:11:49;;;;;;;;;;;;;;;;;;5109397;28;1923;-58
2023/07/10 00:14:19;;;;;;;;;;;;;;;;;;5109676;28;2053;-51
2023/07/10 00:16:47;;;;;;;;;;;;;;;;;;5109007;28;1948;-59
2023/07/10 00:19:15;;;;;;;;;;;;;;;;;;5109597;28;2005;-58
2023/07/10 00:21:42;;;;;;;;;;;;;;;;;;5109214;28;1957;-56
2023/07/10 00:24:10;;;;;;;;;;;;;;;;;;5109681;27;2102;-57
2023/07/10 00:26:37;;;;;;;;;;;;;;;;;;5108869;28;2146;-59
2023/07/10 00:29:25;;;;;;;;;;;;;;;;;;5109149;28;2092;-59
2023/07/10 00:31:53;;;;;;;;;;;;;;;;;;5108700;28;1983;-59
2023/07/10 00:34:25;;;;;;;;;;;;;;;;;;5109584;28;2209;-58
2023/07/10 00:36:53;;;;;;;;;;;;;;;;;;5108868;28;2029;-58
2023/07/10 00:39:20;;;;;;;;;;;;;;;;;;5093182;28;2109;-58
2023/07/10 00:42:08;;;;;;;;;;;;;;;;;;5109240;28;1915;-57
2023/07/10 00:44:37;;;;;;;;;;;;;;;;;;5092764;28;2066;-56
2023/07/10 00:47:17;;;;;;;;;;;;;;;;;;5108325;27;2025;-55
2023/07/10 00:50:05;;;;;;;;;;;;;;;;;;5109433;27;2030;-59
2023/07/10 00:52:38;;;;;;;;;;;;;;;;;;5123714;27;1922;-58
2023/07/10 00:55:15;;;;;;;;;;;;;;;;;;5109554;28;1905;-57
2023/07/10 00:57:43;;;;;;;;;;;;;;;;;;5109324;28;2174;-58
2023/07/10 01:00:14;;;;;;;;;;;;;;;;;;5108820;28;1818;-59
2023/07/10 01:02:42;;;;;;;;;;;;;;;;;;5111348;28;2062;-59
2023/07/10 01:05:09;;;;;;;;;;;;;;;;;;5129566;28;1985;-58
2023/07/10 01:07:40;;;;;;;;;;;;;;;;;;5110639;28;2122;-57
2023/07/10 01:10:09;;;;;;;;;;;;;;;;;;5129749;28;1969;-58
2023/07/10 01:12:37;;;;;;;;;;;;;;;;;;5129365;28;2129;-57
2023/07/10 01:15:06;;;;;;;;;;;;;;;;;;5129347;28;2024;-56
2023/07/10 01:17:34;;;;;;;;;;;;;;;;;;5129623;28;2171;-59
2023/07/10 01:20:05;;;;;;;;;;;;;;;;;;5129743;28;2151;-61
2023/07/10 01:22:33;;;;;;;;;;;;;;;;;;5129025;28;1845;-54
2023/07/10 01:25:00;;;;;;;;;;;;;;;;;;5129491;28;1992;-60
2023/07/10 01:27:28;;;;;;;;;;;;;;;;;;5111143;28;2099;-60
2023/07/10 01:30:06;;;;;;;;;;;;;;;;;;5129047;28;2073;-60
2023/07/10 01:32:34;;;;;;;;;;;;;;;;;;5129421;28;1972;-60
2023/07/10 01:35:04;;;;;;;;;;;;;;;;;;5129563;28;1852;-57
2023/07/10 01:37:32;;;;;;;;;;;;;;;;;;5110519;28;2105;-59
2023/07/10 01:40:01;;;;;;;;;;;;;;;;;;5129784;28;1963;-60
2023/07/10 01:42:29;;;;;;;;;;;;;;;;;;5111222;28;2062;-60
2023/07/10 01:44:57;;;;;;;;;;;;;;;;;;5129024;28;2250;-60
2023/07/10 01:47:25;;;;;;;;;;;;;;;;;;5129138;28;1958;-59
2023/07/10 01:49:55;;;;;;;;;;;;;;;;;;5129277;28;2007;-60
2023/07/10 01:52:23;;;;;;;;;;;;;;;;;;5108000;28;2098;-60
2023/07/10 01:54:50;;;;;;;;;;;;;;;;;;5108483;28;1822;-60
2023/07/10 01:57:23;;;;;;;;;;;;;;;;;;5108692;28;2142;-60
2023/07/10 01:59:53;;;;;;;;;;;;;;;;;;5111482;27;2154;-59
2023/07/10 02:02:21;;;;;;;;;;;;;;;;;;5114882;27;1849;-60
2023/07/10 02:04:49;;;;;;;;;;;;;;;;;;5112081;28;2408;-60
2023/07/10 02:07:16;;;;;;;;;;;;;;;;;;5112194;27;2017;-60
2023/07/10 02:09:43;;;;;;;;;;;;;;;;;;5112332;28;2149;-60
2023/07/10 02:12:10;;;;;;;;;;;;;;;;;;5112313;27;2035;-60
2023/07/10 02:14:39;;;;;;;;;;;;;;;;;;5111425;28;1842;-60
2023/07/10 02:17:06;;;;;;;;;;;;;;;;;;5112217;28;1995;-60
2023/07/10 02:19:34;;;;;;;;;;;;;;;;;;5112210;28;2025;-59
2023/07/10 02:22:01;;;;;;;;;;;;;;;;;;5111812;28;1796;-60
2023/07/10 02:24:29;;;;;;;;;;;;;;;;;;5113906;27;1993;-60
2023/07/10 02:26:56;;;;;;;;;;;;;;;;;;5132322;27;2028;-60
2023/07/10 02:29:23;;;;;;;;;;;;;;;;;;5132168;27;1960;-60
2023/07/10 02:31:51;;;;;;;;;;;;;;;;;;5132144;27;2062;-60
2023/07/10 02:34:18;;;;;;;;;;;;;;;;;;5132086;27;2254;-60
2023/07/10 02:36:45;;;;;;;;;;;;;;;;;;5132018;27;2159;-60
2023/07/10 02:39:14;;;;;;;;;;;;;;;;;;5132545;27;1957;-60
2023/07/10 02:41:41;;;;;;;;;;;;;;;;;;5113618;27;1866;-60
2023/07/10 02:44:08;;;;;;;;;;;;;;;;;;5131833;27;1964;-60
2023/07/10 02:46:36;;;;;;;;;;;;;;;;;;5132169;27;2039;-60
2023/07/10 02:49:03;;;;;;;;;;;;;;;;;;5132329;27;2004;-59
2023/07/10 02:51:31;;;;;;;;;;;;;;;;;;5131572;27;1910;-55
2023/07/10 02:53:58;;;;;;;;;;;;;;;;;;5115935;27;2176;-58
2023/07/10 02:56:26;;;;;;;;;;;;;;;;;;5111643;28;2171;-58
2023/07/10 02:58:53;;;;;;;;;;;;;;;;;;5112908;27;2104;-59
2023/07/10 03:01:26;;;;;;;;;;;;;;;;;;5131780;27;1881;-60
2023/07/10 03:03:54;;;;;;;;;;;;;;;;;;5131422;27;2125;-60
2023/07/10 03:06:23;;;;;;;;;;;;;;;;;;5131704;27;2070;-56
2023/07/10 03:08:51;;;;;;;;;;;;;;;;;;5131463;27;1960;-60
2023/07/10 03:11:18;;;;;;;;;;;;;;;;;;5130240;27;1986;-54
2023/07/10 03:13:45;;;;;;;;;;;;;;;;;;5131249;27;1944;-60
2023/07/10 03:16:14;;;;;;;;;;;;;;;;;;5131704;27;2069;-60
2023/07/10 03:18:41;;;;;;;;;;;;;;;;;;5110827;28;1854;-60
2023/07/10 03:21:08;;;;;;;;;;;;;;;;;;5110768;28;1801;-58
2023/07/10 03:23:37;;;;;;;;;;;;;;;;;;5110804;28;2130;-56
2023/07/10 03:26:04;;;;;;;;;;;;;;;;;;5110844;27;2024;-55
2023/07/10 03:28:36;;;;;;;;;;;;;;;;;;5110298;28;1931;-60
2023/07/10 03:31:04;;;;;;;;;;;;;;;;;;5110905;28;1910;-61
2023/07/10 03:33:32;;;;;;;;;;;;;;;;;;5110728;27;1990;-55
2023/07/10 03:36:00;;;;;;;;;;;;;;;;;;5110304;28;2477;-55
2023/07/10 03:38:28;;;;;;;;;;;;;;;;;;5110267;28;2038;-56
2023/07/10 03:40:56;;;;;;;;;;;;;;;;;;5110383;28;1821;-59
2023/07/10 03:43:24;;;;;;;;;;;;;;;;;;5110151;27;2109;-60
2023/07/10 03:45:54;;;;;;;;;;;;;;;;;;5110272;28;2019;-57
2023/07/10 03:48:22;;;;;;;;;;;;;;;;;;5110574;28;1863;-55
2023/07/10 03:50:50;;;;;;;;;;;;;;;;;;5109656;28;1949;-59
2023/07/10 03:53:17;;;;;;;;;;;;;;;;;;5110571;28;2036;-60
2023/07/10 03:55:52;;;;;;;;;;;;;;;;;;5110007;28;1994;-59
2023/07/10 03:58:21;;;;;;;;;;;;;;;;;;5110063;28;2044;-58
2023/07/10 04:00:51;;;;;;;;;;;;;;;;;;5130564;27;1940;-54
2023/07/10 04:03:21;;;;;;;;;;;;;;;;;;5130319;27;2063;-55
2023/07/10 04:05:52;;;;;;;;;;;;;;;;;;5129861;27;2103;-56
2023/07/10 04:08:20;;;;;;;;;;;;;;;;;;5130421;27;2269;-58
2023/07/10 04:10:48;;;;;;;;;;;;;;;;;;5130399;27;2090;-59
2023/07/10 04:13:16;;;;;;;;;;;;;;;;;;5116861;27;2044;-57
2023/07/10 04:15:53;;;;;;;;;;;;;;;;;;5110163;28;1891;-56
2023/07/10 04:18:21;;;;;;;;;;;;;;;;;;5110210;28;2032;-58
2023/07/10 04:20:48;;;;;;;;;;;;;;;;;;5109113;27;2186;-54
2023/07/10 04:23:18;;;;;;;;;;;;;;;;;;5109810;28;2081;-60
2023/07/10 04:25:45;;;;;;;;;;;;;;;;;;5109863;28;2053;-57
2023/07/10 04:28:12;;;;;;;;;;;;;;;;;;5109464;28;2027;-60
2023/07/10 04:30:40;;;;;;;;;;;;;;;;;;5109073;28;2119;-59
2023/07/10 04:33:11;;;;;;;;;;;;;;;;;;5109853;28;2433;-59
2023/07/10 04:35:39;;;;;;;;;;;;;;;;;;5109174;28;2232;-55
2023/07/10 04:38:06;;;;;;;;;;;;;;;;;;5109334;28;2072;-59
2023/07/10 04:40:33;;;;;;;;;;;;;;;;;;5109791;28;2048;-59
2023/07/10 04:43:04;;;;;;;;;;;;;;;;;;5108695;28;2156;-59
2023/07/10 04:45:31;;;;;;;;;;;;;;;;;;5109608;28;2169;-60
2023/07/10 04:47:58;;;;;;;;;;;;;;;;;;5109205;28;2000;-60
2023/07/10 04:50:26;;;;;;;;;;;;;;;;;;5109357;28;1980;-60
2023/07/10 04:52:53;;;;;;;;;;;;;;;;;;5109064;28;2098;-59
2023/07/10 04:55:20;;;;;;;;;;;;;;;;;;5111668;28;2080;-60
2023/07/10 04:57:47;;;;;;;;;;;;;;;;;;5129428;28;2101;-59
2023/07/10 05:00:15;;;;;;;;;;;;;;;;;;5130204;28;2047;-58
2023/07/10 05:02:42;;;;;;;;;;;;;;;;;;5129667;28;2003;-60
2023/07/10 05:05:09;;;;;;;;;;;;;;;;;;5129260;28;2149;-58
2023/07/10 05:07:37;;;;;;;;;;;;;;;;;;5129584;28;1824;-56
2023/07/10 05:10:04;;;;;;;;;;;;;;;;;;5129779;28;1888;-60
2023/07/10 05:12:33;;;;;;;;;;;;;;;;;;5129306;28;1979;-58
2023/07/10 05:15:00;;;;;;;;;;;;;;;;;;5129599;28;2013;-57
2023/07/10 05:17:27;;;;;;;;;;;;;;;;;;5109386;28;1895;-58
2023/07/10 05:19:54;;;;;;;;;;;;;;;;;;5108747;28;1965;-60
2023/07/10 05:22:21;;;;;;;;;;;;;;;;;;5109371;28;1792;-60
2023/07/10 05:24:49;;;;;;;;;;;;;;;;;;5108883;28;2016;-58
2023/07/10 05:27:16;;;;;;;;;;;;;;;;;;5109106;28;1935;-61
2023/07/10 05:29:43;;;;;;;;;;;;;;;;;;5129602;28;2129;-60
2023/07/10 05:32:10;;;;;;;;;;;;;;;;;;5129465;28;2051;-56
2023/07/10 05:34:38;;;;;;;;;;;;;;;;;;5129870;27;2092;-59
2023/07/10 05:37:05;;;;;;;;;;;;;;;;;;5133580;27;1923;-59
2023/07/10 05:39:32;;;;;;;;;;;;;;;;;;5127920;27;1781;-53
2023/07/10 05:42:00;;;;;;;;;;;;;;;;;;5112297;27;2490;-59
2023/07/10 05:44:27;;;;;;;;;;;;;;;;;;5112705;28;1862;-59
2023/07/10 05:46:56;;;;;;;;;;;;;;;;;;5112750;28;2116;-57
2023/07/10 05:49:24;;;;;;;;;;;;;;;;;;5112277;28;2027;-53
2023/07/10 05:51:52;;;;;;;;;;;;;;;;;;5112246;28;1913;-59
2023/07/10 05:54:20;;;;;;;;;;;;;;;;;;5112467;28;2121;-58
2023/07/10 05:56:47;;;;;;;;;;;;;;;;;;5112436;27;2061;-58
2023/07/10 05:59:15;;;;;;;;;;;;;;;;;;5113112;28;1841;-57
2023/07/10 06:01:42;;;;;;;;;;;;;;;;;;5112202;28;2019;-58
2023/07/10 06:04:09;;;;;;;;;;;;;;;;;;5111793;28;1910;-57
2023/07/10 06:06:37;;;;;;;;;;;;;;;;;;5112498;28;2281;-59
2023/07/10 06:09:04;;;;;;;;;;;;;;;;;;5132915;27;1845;-64
2023/07/10 06:11:32;;;;;;;;;;;;;;;;;;5132515;27;1973;-59
2023/07/10 06:13:59;;;;;;;;;;;;;;;;;;5112213;28;2062;-59
2023/07/10 06:16:27;;;;;;;;;;;;;;;;;;5112490;28;2105;-60
2023/07/10 06:18:54;;;;;;;;;;;;;;;;;;5111664;28;2036;-58
2023/07/10 06:21:21;;;;;;;;;;;;;;;;;;5112257;28;1886;-59
2023/07/10 06:23:49;;;;;;;;;;;;;;;;;;5111881;28;1973;-53
2023/07/10 06:26:20;;;;;;;;;;;;;;;;;;5111707;28;2019;-59
2023/07/10 06:28:48;;;;;;;;;;;;;;;;;;5111938;28;1981;-60
2023/07/10 06:31:15;;;;;;;;;;;;;;;;;;5112024;28;2031;-59
2023/07/10 06:33:42;;;;;;;;;;;;;;;;;;5111366;28;2020;-59
2023/07/10 06:36:09;;;;;;;;;;;;;;;;;;5112022;28;2007;-56
2023/07/10 06:38:37;;;;;;;;;;;;;;;;;;5111853;27;1910;-59
2023/07/10 06:41:07;;;;;;;;;;;;;;;;;;5131830;27;2055;-59
2023/07/10 06:43:35;;;;;;;;;;;;;;;;;;5132380;27;2082;-60
2023/07/10 06:46:02;;;;;;;;;;;;;;;;;;5131689;27;2223;-54
2023/07/10 06:48:30;;;;;;;;;;;;;;;;;;5131447;27;2034;-52
2023/07/10 06:50:57;;;;;;;;;;;;;;;;;;5131913;27;2147;-58
2023/07/10 06:53:25;;;;;;;;;;;;;;;;;;5120843;27;2062;-56
2023/07/10 06:55:55;;;;;;;;;;;;;;;;;;5125939;27;1909;-58
2023/07/10 06:58:22;;;;;;;;;;;;;;;;;;5131909;27;1966;-56
2023/07/10 07:00:50;;;;;;;;;;;;;;;;;;5131828;27;2113;-60
2023/07/10 07:03:18;;;;;;;;;;;;;;;;;;5131767;27;2055;-60
2023/07/10 07:05:46;;;;;;;;;;;;;;;;;;5131765;27;2058;-60
2023/07/10 07:08:13;;;;;;;;;;;;;;;;;;5131448;27;2094;-58
2023/07/10 07:10:41;;;;;;;;;;;;;;;;;;5131432;27;1856;-56
2023/07/10 07:13:09;;;;;;;;;;;;;;;;;;5131634;27;1996;-58
2023/07/10 07:15:36;;;;;;;;;;;;;;;;;;5131422;27;2142;-59
2023/07/10 07:18:04;;;;;;;;;;;;;;;;;;5130830;27;2191;-59
2023/07/10 07:20:32;;;;;;;;;;;;;;;;;;5131566;27;2062;-60
2023/07/10 07:22:59;;;;;;;;;;;;;;;;;;5131307;27;2014;-59
2023/07/10 07:25:28;;;;;;;;;;;;;;;;;;5130785;27;2014;-59
2023/07/10 07:27:59;;;;;;;;;;;;;;;;;;5131377;27;2181;-60
2023/07/10 07:30:27;;;;;;;;;;;;;;;;;;5114523;27;2068;-59
2023/07/10 07:32:56;;;;;;;;;;;;;;;;;;5110195;28;2006;-58
2023/07/10 07:35:23;;;;;;;;;;;;;;;;;;5110446;28;2083;-58
2023/07/10 07:37:51;;;;;;;;;;;;;;;;;;5110479;28;2245;-57
2023/07/10 07:40:18;;;;;;;;;;;;;;;;;;5117165;27;2038;-54
2023/07/10 07:42:46;;;;;;;;;;;;;;;;;;5131125;27;1993;-59
2023/07/10 07:45:14;;;;;;;;;;;;;;;;;;5130995;27;2429;-59
2023/07/10 07:47:41;;;;;;;;;;;;;;;;;;5130465;27;2116;-60
2023/07/10 07:50:09;;;;;;;;;;;;;;;;;;5130998;27;2029;-60
2023/07/10 07:52:36;;;;;;;;;;;;;;;;;;5110133;28;2094;-60
2023/07/10 07:55:04;;;;;;;;;;;;;;;;;;5110003;28;1982;-60
2023/07/10 07:57:32;;;;;;;;;;;;;;;;;;5109950;28;1959;-60
2023/07/10 07:59:59;;;;;;;;;;;;;;;;;;5110252;28;2495;-59
2023/07/10 08:02:27;;;;;;;;;;;;;;;;;;5109673;28;2046;-56
2023/07/10 08:04:54;;;;;;;;;;;;;;;;;;5110332;28;1997;-59
2023/07/10 08:07:21;;;;;;;;;;;;;;;;;;5110035;28;1823;-59
2023/07/10 08:09:49;;;;;;;;;;;;;;;;;;5109572;28;1925;-54
2023/07/10 08:12:16;;;;;;;;;;;;;;;;;;5112156;27;2448;-58
2023/07/10 08:14:43;;;;;;;;;;;;;;;;;;5130202;27;2000;-60
2023/07/10 08:17:11;;;;;;;;;;;;;;;;;;5130207;27;1824;-57
2023/07/10 08:19:38;;;;;;;;;;;;;;;;;;5130341;27;1992;-59
2023/07/10 08:22:05;;;;;;;;;;;;;;;;;;5130226;27;1767;-57
2023/07/10 08:24:33;;;;;;;;;;;;;;;;;;5129912;27;2346;-60
2023/07/10 08:27:00;;;;;;;;;;;;;;;;;;5130289;27;1992;-60
2023/07/10 08:29:29;;;;;;;;;;;;;;;;;;5130419;27;1910;-61
2023/07/10 08:31:57;;;;;;;;;;;;;;;;;;5129225;27;2066;-61
2023/07/10 08:34:25;;;;;;;;;;;;;;;;;;5130258;27;2090;-61
2023/07/10 08:36:52;;;;;;;;;;;;;;;;;;5129956;27;2106;-61
2023/07/10 08:39:21;;;;;;;;;;;;;;;;;;5129740;27;1930;-62
2023/07/10 08:41:50;;;;;;;;;;;;;;;;;;5109594;28;2377;-50
2023/07/10 08:44:17;;;;;;;;;;;;;;;;;;5111912;27;2267;-59
2023/07/10 08:46:46;;;;;;;;;;;;;;;;;;5129693;27;1859;-59
2023/07/10 08:49:23;;;;;;;;;;;;;;;;;;5130107;27;2133;-59
2023/07/10 08:52:06;;;;;;;;;;;;;;;;;;5129704;27;2333;-59
2023/07/10 08:54:34;;;;;;;;;;;;;;;;;;5109118;28;1969;-61
2023/07/10 08:57:11;;;;;;;;;;;;;;;;;;5109158;28;2060;-59
2023/07/10 08:59:51;;;;;;;;;;;;;;;;;;5109627;28;2173;-57
2023/07/10 09:02:21;;;;;;;;;;;;;;;;;;5108859;28;1986;-56
2023/07/10 09:04:49;;;;;;;;;;;;;;;;;;5109297;28;2062;-57
2023/07/10 09:07:18;;;;;;;;;;;;;;;;;;5109778;28;2021;-59
2023/07/10 09:09:48;;;;;;;;;;;;;;;;;;5110054;28;1821;-61
2023/07/10 09:12:25;;;;;;;;;;;;;;;;;;5113713;28;2124;-59
2023/07/10 09:14:58;;;;;;;;;;;;;;;;;;5113463;27;2103;-59
2023/07/10 09:17:28;;;;;;;;;;;;;;;;;;5115518;27;1961;-58
2023/07/10 09:19:59;;;;;;;;;;;;;;;;;;5133704;27;2123;-58
2023/07/10 09:22:26;;;;;;;;;;;;;;;;;;5133821;27;2006;-58
2023/07/10 09:24:54;;;;;;;;;;;;;;;;;;5133301;27;1946;-59
2023/07/10 09:27:21;;;;;;;;;;;;;;;;;;5133479;27;1902;-59
2023/07/10 09:29:50;;;;;;;;;;;;;;;;;;5133772;27;2087;-59
2023/07/10 09:32:19;;;;;;;;;;;;;;;;;;5133556;27;1828;-59
2023/07/10 09:35:04;;;;;;;;;;;;;;;;;;5133402;27;1903;-59
2023/07/10 09:37:35;;;;;;;;;;;;;;;;;;5133573;27;2048;-59
2023/07/10 09:40:20;;;;;;;;;;;;;;;;;;5133134;27;2061;-58
2023/07/10 09:42:47;;;;;;;;;;;;;;;;;;5133598;27;1922;-54
2023/07/10 09:45:17;;;;;;;;;;;;;;;;;;5133664;27;2106;-56
2023/07/10 09:47:50;;;;;;;;;;;;;;;;;;5132686;27;1978;-56
2023/07/10 09:50:18;;;;;;;;;;;;;;;;;;5132359;27;1903;-58
2023/07/10 09:52:51;;;;;;;;;;;;;;;;;;5125826;27;2076;-55
2023/07/10 09:55:18;;;;;;;;;;;;;;;;;;5111723;28;2309;-58
2023/07/10 09:57:45;;;;;;;;;;;;;;;;;;5111264;28;1891;-58
2023/07/10 10:00:15;;;;;;;;;;;;;;;;;;5111205;28;1827;-55
2023/07/10 10:02:48;;;;;;;;;;;;;;;;;;5112494;28;1916;-58
2023/07/10 10:05:19;;;;;;;;;;;;;;;;;;5113452;28;2316;-55
2023/07/10 10:07:47;;;;;;;;;;;;;;;;;;5112876;28;2091;-58
2023/07/10 10:10:28;;;;;;;;;;;;;;;;;;5113445;28;1979;-58
2023/07/10 10:12:58;;;;;;;;;;;;;;;;;;5112847;28;1965;-58
2023/07/10 10:15:30;;;;;;;;;;;;;;;;;;5112762;28;1905;-57
2023/07/10 10:18:01;;;;;;;;;;;;;;;;;;5112946;28;2023;-54
2023/07/10 10:20:31;;;;;;;;;;;;;;;;;;5112236;28;1996;-57
2023/07/10 10:22:58;;;;;;;;;;;;;;;;;;5112457;28;1924;-58
2023/07/10 10:25:32;;;;;;;;;;;;;;;;;;5113078;28;2067;-58
2023/07/10 10:28:25;;;;;;;;;;;;;;;;;;5112696;27;2113;-56
2023/07/10 10:31:00;;;;;;;;;;;;;;;;;;5112187;28;1981;-58
2023/07/10 10:33:28;;;;;;;;;;;;;;;;;;5112706;28;2185;-56
2023/07/10 10:35:56;;;;;;;;;;;;;;;;;;5112589;28;2121;-57
2023/07/10 10:38:23;;;;;;;;;;;;;;;;;;5112164;28;2215;-58
2023/07/10 10:41:00;;;;;;;;;;;;;;;;;;5112660;27;1883;-58
2023/07/10 10:43:33;;;;;;;;;;;;;;;;;;5112124;28;2308;-59
2023/07/10 10:46:04;;;;;;;;;;;;;;;;;;5110800;28;1962;-58
2023/07/10 10:48:41;;;;;;;;;;;;;;;;;;5112742;27;1999;-57
2023/07/10 10:51:18;;;;;;;;;;;;;;;;;;5111091;27;2145;-57
2023/07/10 10:54:00;;;;;;;;;;;;;;;;;;5110390;27;2123;-57
2023/07/10 10:56:37;;;;;;;;;;;;;;;;;;5111601;28;2083;-58
2023/07/10 10:59:11;;;;;;;;;;;;;;;;;;5111080;27;2023;-56
2023/07/10 11:01:46;;;;;;;;;;;;;;;;;;5111388;27;1861;-57
2023/07/10 11:04:17;;;;;;;;;;;;;;;;;;5112344;27;1987;-58
2023/07/10 11:06:46;;;;;;;;;;;;;;;;;;5120569;27;2068;-57
2023/07/10 11:09:17;;;;;;;;;;;;;;;;;;5132432;27;2220;-58
2023/07/10 11:11:46;;;;;;;;;;;;;;;;;;5112148;27;2136;-56
2023/07/10 11:14:16;;;;;;;;;;;;;;;;;;5111856;28;1994;-56
2023/07/10 11:16:44;;;;;;;;;;;;;;;;;;5111752;28;2051;-55
2023/07/10 11:19:15;;;;;;;;;;;;;;;;;;5111315;27;2064;-57
2023/07/10 11:21:43;;;;;;;;;;;;;;;;;;5110637;28;2129;-58
2023/07/10 11:24:34;;;;;;;;;;;;;;;;;;5109898;27;2130;-57
2023/07/10 11:27:09;;;;;;;;;;;;;;;;;;5130896;27;2122;-56
2023/07/10 11:29:41;;;;;;;;;;;;;;;;;;5131839;27;2177;-57
2023/07/10 11:32:11;;;;;;;;;;;;;;;;;;5130760;27;2040;-57
2023/07/10 11:34:53;;;;;;;;;;;;;;;;;;5131604;27;2113;-57
2023/07/10 11:37:33;;;;;;;;;;;;;;;;;;5131415;27;2009;-57
2023/07/10 11:40:19;;;;;;;;;;;;;;;;;;5131139;27;2159;-54
2023/07/10 11:42:47;;;;;;;;;;;;;;;;;;5131879;27;1963;-51
2023/07/10 11:45:14;;;;;;;;;;;;;;;;;;5110822;28;2366;-53
2023/07/10 11:47:44;;;;;;;;;;;;;;;;;;5110994;28;2032;-54
2023/07/10 11:50:13;;;;;;;;;;;;;;;;;;5111185;28;2155;-53
2023/07/10 11:52:41;;;;;;;;;;;;;;;;;;5110542;28;2013;-54
2023/07/10 11:55:12;;;;;;;;;;;;;;;;;;5110903;28;2001;-56
2023/07/10 11:57:40;;;;;;;;;;;;;;;;;;5110684;28;2230;-53
2023/07/10 12:00:13;;;;;;;;;;;;;;;;;;5110163;28;2052;-57
2023/07/10 12:02:51;;;;;;;;;;;;;;;;;;5109118;28;1930;-56
2023/07/10 12:05:21;;;;;;;;;;;;;;;;;;5109310;28;2044;-56
2023/07/10 12:07:53;;;;;;;;;;;;;;;;;;5112497;27;2359;-58
2023/07/10 12:10:23;;;;;;;;;;;;;;;;;;5131370;27;1885;-57
2023/07/10 12:12:51;;;;;;;;;;;;;;;;;;5131013;27;2135;-57
2023/07/10 12:15:18;;;;;;;;;;;;;;;;;;5130707;27;1981;-56
2023/07/10 12:17:46;;;;;;;;;;;;;;;;;;5131085;27;2084;-54
2023/07/10 12:20:19;;;;;;;;;;;;;;;;;;5110949;28;1916;-53
2023/07/10 12:22:46;;;;;;;;;;;;;;;;;;5110315;28;2083;-55
2023/07/10 12:25:14;;;;;;;;;;;;;;;;;;5110865;28;2189;-57
2023/07/10 12:27:42;;;;;;;;;;;;;;;;;;5110298;28;1952;-55
2023/07/10 12:30:14;;;;;;;;;;;;;;;;;;5110311;28;2014;-56
2023/07/10 12:32:41;;;;;;;;;;;;;;;;;;5110760;28;2173;-56
2023/07/10 12:35:13;;;;;;;;;;;;;;;;;;5110619;28;2168;-53
2023/07/10 12:37:46;;;;;;;;;;;;;;;;;;5110304;28;1903;-54
2023/07/10 12:40:15;;;;;;;;;;;;;;;;;;5110347;28;1881;-53
2023/07/10 12:42:44;;;;;;;;;;;;;;;;;;5110339;28;2275;-54
2023/07/10 12:45:16;;;;;;;;;;;;;;;;;;5110381;28;2065;-51
2023/07/10 12:47:53;;;;;;;;;;;;;;;;;;5110239;28;2111;-53
2023/07/10 12:50:32;;;;;;;;;;;;;;;;;;5109780;28;2499;-56
2023/07/10 12:53:03;;;;;;;;;;;;;;;;;;5110119;28;2275;-52
2023/07/10 12:55:31;;;;;;;;;;;;;;;;;;5110462;28;1990;-56
2023/07/10 12:58:00;;;;;;;;;;;;;;;;;;5109357;28;2237;-54
2023/07/10 13:00:41;;;;;;;;;;;;;;;;;;5110334;28;2090;-54
2023/07/10 13:03:19;;;;;;;;;;;;;;;;;;5109848;28;2017;-54
2023/07/10 13:05:51;;;;;;;;;;;;;;;;;;5109244;28;1936;-55
2023/07/10 13:08:19;;;;;;;;;;;;;;;;;;5130816;28;1953;-52
2023/07/10 13:10:46;;;;;;;;;;;;;;;;;;5130905;28;2109;-57
2023/07/10 13:13:18;;;;;;;;;;;;;;;;;;5130367;28;2132;-53
2023/07/10 13:15:46;;;;;;;;;;;;;;;;;;5130360;28;1742;-57
2023/07/10 13:18:23;;;;;;;;;;;;;;;;;;5124749;27;2043;-54
2023/07/10 13:20:51;;;;;;;;;;;;;;;;;;5109577;28;1996;-56
2023/07/10 13:23:18;;;;;;;;;;;;;;;;;;5110108;28;2061;-53
2023/07/10 13:25:46;;;;;;;;;;;;;;;;;;5110146;28;2011;-55
2023/07/10 13:28:21;;;;;;;;;;;;;;;;;;5109621;28;2005;-57
2023/07/10 13:30:54;;;;;;;;;;;;;;;;;;5109924;28;1992;-56
2023/07/10 13:33:23;;;;;;;;;;;;;;;;;;5109977;28;2148;-57
2023/07/10 13:35:53;;;;;;;;;;;;;;;;;;5109426;28;1956;-50
2023/07/10 13:38:21;;;;;;;;;;;;;;;;;;5109978;28;1822;-57
2023/07/10 13:40:48;;;;;;;;;;;;;;;;;;5109888;28;2036;-51
2023/07/10 13:43:20;;;;;;;;;;;;;;;;;;5109767;28;2238;-52
2023/07/10 13:45:56;;;;;;;;;;;;;;;;;;5109887;28;1845;-51
2023/07/10 13:48:23;;;;;;;;;;;;;;;;;;5110012;28;1981;-53
2023/07/10 13:50:50;;;;;;;;;;;;;;;;;;5109463;28;2049;-54
2023/07/10 13:53:22;;;;;;;;;;;;;;;;;;5110020;28;1729;-57
2023/07/10 13:55:50;;;;;;;;;;;;;;;;;;5110764;28;2081;-56
2023/07/10 13:58:21;;;;;;;;;;;;;;;;;;5113402;28;2097;-57
2023/07/10 14:00:50;;;;;;;;;;;;;;;;;;5113540;28;2065;-57
2023/07/10 14:03:18;;;;;;;;;;;;;;;;;;5113715;28;2011;-57
2023/07/10 14:05:46;;;;;;;;;;;;;;;;;;5112495;28;1852;-58
2023/07/10 14:08:20;;;;;;;;;;;;;;;;;;5110643;27;2148;-57
2023/07/10 14:10:50;;;;;;;;;;;;;;;;;;5112706;28;1980;-57
2023/07/10 14:13:17;;;;;;;;;;;;;;;;;;5112479;28;2144;-54
2023/07/10 14:15:45;;;;;;;;;;;;;;;;;;5112904;28;1958;-52
2023/07/10 14:18:15;;;;;;;;;;;;;;;;;;5112936;28;1907;-52
2023/07/10 14:20:43;;;;;;;;;;;;;;;;;;5112320;28;2253;-53
2023/07/10 14:23:17;;;;;;;;;;;;;;;;;;5112862;28;2155;-57
2023/07/10 14:25:45;;;;;;;;;;;;;;;;;;5112449;27;1928;-56
2023/07/10 14:28:24;;;;;;;;;;;;;;;;;;5112390;28;2005;-52
2023/07/10 14:30:54;;;;;;;;;;;;;;;;;;5112501;28;2006;-56
2023/07/10 14:33:21;;;;;;;;;;;;;;;;;;5112502;28;2369;-54
2023/07/10 14:35:49;;;;;;;;;;;;;;;;;;5111803;28;2147;-52
2023/07/10 14:38:21;;;;;;;;;;;;;;;;;;5112687;28;1897;-50
2023/07/10 14:40:49;;;;;;;;;;;;;;;;;;5112452;28;1947;-50
2023/07/10 14:43:17;;;;;;;;;;;;;;;;;;5111919;28;1889;-51
2023/07/10 14:45:50;;;;;;;;;;;;;;;;;;5112236;27;2065;-53
2023/07/10 14:48:18;;;;;;;;;;;;;;;;;;5119659;27;2490;-53
2023/07/10 14:50:48;;;;;;;;;;;;;;;;;;5111934;28;2020;-52
2023/07/10 14:53:17;;;;;;;;;;;;;;;;;;5112377;28;1980;-54
2023/07/10 14:55:45;;;;;;;;;;;;;;;;;;5113089;27;1894;-52
2023/07/10 14:58:16;;;;;;;;;;;;;;;;;;5132303;27;2065;-51
2023/07/10 15:00:44;;;;;;;;;;;;;;;;;;5132284;27;2005;-53
2023/07/10 15:03:12;;;;;;;;;;;;;;;;;;5132083;27;2162;-53
2023/07/10 15:05:40;;;;;;;;;;;;;;;;;;5132141;27;2186;-53
2023/07/10 15:08:27;;;;;;;;;;;;;;;;;;5132098;27;1903;-53
2023/07/10 15:10:54;;;;;;;;;;;;;;;;;;5131588;27;2188;-51
2023/07/10 15:13:22;;;;;;;;;;;;;;;;;;5132127;27;1926;-54
2023/07/10 15:15:51;;;;;;;;;;;;;;;;;;5131980;27;2049;-50
2023/07/10 15:18:19;;;;;;;;;;;;;;;;;;5132014;27;1823;-55
2023/07/10 15:20:47;;;;;;;;;;;;;;;;;;5132236;27;2011;-51
2023/07/10 15:23:19;;;;;;;;;;;;;;;;;;5131957;27;2092;-53
2023/07/10 15:25:47;;;;;;;;;;;;;;;;;;5131306;27;2200;-53
2023/07/10 15:28:16;;;;;;;;;;;;;;;;;;5132222;27;2271;-54
2023/07/10 15:30:43;;;;;;;;;;;;;;;;;;5112303;27;1974;-51
2023/07/10 15:33:12;;;;;;;;;;;;;;;;;;5109326;28;1923;-53
2023/07/10 15:35:40;;;;;;;;;;;;;;;;;;5108833;28;1961;-52
2023/07/10 15:38:14;;;;;;;;;;;;;;;;;;5111783;28;2078;-53
2023/07/10 15:40:44;;;;;;;;;;;;;;;;;;5111521;28;1866;-55
2023/07/10 15:43:16;;;;;;;;;;;;;;;;;;5110898;28;2005;-54
2023/07/10 15:45:43;;;;;;;;;;;;;;;;;;5111016;28;1866;-55
2023/07/10 15:48:13;;;;;;;;;;;;;;;;;;5111868;28;2029;-55
2023/07/10 15:50:41;;;;;;;;;;;;;;;;;;5111379;28;1913;-53
2023/07/10 15:53:15;;;;;;;;;;;;;;;;;;5111396;28;2049;-53
2023/07/10 15:55:42;;;;;;;;;;;;;;;;;;5110730;28;2061;-52
2023/07/10 15:58:11;;;;;;;;;;;;;;;;;;5111034;28;1900;-52
2023/07/10 16:00:38;;;;;;;;;;;;;;;;;;5111167;28;1954;-53
2023/07/10 16:03:14;;;;;;;;;;;;;;;;;;5110904;28;2190;-51
2023/07/10 16:05:41;;;;;;;;;;;;;;;;;;5111222;28;2118;-55
2023/07/10 16:08:13;;;;;;;;;;;;;;;;;;5110698;28;1976;-54
2023/07/10 16:10:40;;;;;;;;;;;;;;;;;;5115375;27;2075;-53
2023/07/10 16:13:13;;;;;;;;;;;;;;;;;;5131692;27;1990;-55
2023/07/10 16:15:41;;;;;;;;;;;;;;;;;;5131351;27;1918;-51
2023/07/10 16:18:13;;;;;;;;;;;;;;;;;;5130498;27;2079;-54
2023/07/10 16:20:44;;;;;;;;;;;;;;;;;;5131369;27;2048;-54
2023/07/10 16:23:15;;;;;;;;;;;;;;;;;;5131162;27;2218;-53
2023/07/10 16:25:43;;;;;;;;;;;;;;;;;;5130489;27;2175;-52
2023/07/10 16:28:14;;;;;;;;;;;;;;;;;;5131342;27;2185;-55
2023/07/10 16:30:43;;;;;;;;;;;;;;;;;;5131304;27;2287;-54
2023/07/10 16:33:15;;;;;;;;;;;;;;;;;;5130834;27;2205;-53
2023/07/10 16:35:42;;;;;;;;;;;;;;;;;;5130564;27;1982;-50
2023/07/10 16:38:17;;;;;;;;;;;;;;;;;;5131205;27;2104;-53
2023/07/10 16:40:45;;;;;;;;;;;;;;;;;;5130669;27;1915;-54
2023/07/10 16:43:15;;;;;;;;;;;;;;;;;;5110711;28;2026;-55
2023/07/10 16:45:44;;;;;;;;;;;;;;;;;;5110415;28;2319;-54
2023/07/10 16:48:21;;;;;;;;;;;;;;;;;;5110054;28;2085;-55
2023/07/10 16:50:50;;;;;;;;;;;;;;;;;;5110555;28;2069;-54
2023/07/10 16:53:24;;;;;;;;;;;;;;;;;;5110597;28;2240;-53
2023/07/10 16:55:52;;;;;;;;;;;;;;;;;;5109756;28;2304;-56
2023/07/10 16:58:22;;;;;;;;;;;;;;;;;;5110337;28;2003;-55
2023/07/10 17:00:49;;;;;;;;;;;;;;;;;;5110335;28;1914;-56
2023/07/10 17:03:23;;;;;;;;;;;;;;;;;;5110161;28;2007;-56
2023/07/10 17:05:51;;;;;;;;;;;;;;;;;;5110023;28;2051;-54
2023/07/10 17:08:20;;;;;;;;;;;;;;;;;;5110435;28;2204;-54
2023/07/10 17:10:48;;;;;;;;;;;;;;;;;;5130008;28;2080;-54
2023/07/10 17:13:17;;;;;;;;;;;;;;;;;;5130962;28;1813;-56
2023/07/10 17:15:45;;;;;;;;;;;;;;;;;;5130170;28;2215;-57
2023/07/10 17:18:16;;;;;;;;;;;;;;;;;;5130343;28;1853;-56
2023/07/10 17:20:44;;;;;;;;;;;;;;;;;;5130592;28;2010;-56